createdAt,value
2019-05-18T04:30:52.324Z,8.10
2019-05-18T04:33:21.378Z,8.20
2019-05-18T04:35:50.622Z,8.30
2019-05-18T04:38:19.627Z,8.30
2019-05-18T04:40:48.691Z,8.40
2019-05-18T04:43:17.807Z,8.50
2019-05-18T04:45:46.740Z,9.40
2019-05-18T04:48:15.744Z,8.60
2019-05-18T04:50:44.764Z,8.80
2019-05-18T04:53:13.792Z,8.90
2019-05-18T04:55:42.715Z,9.00
2019-05-18T04:58:11.778Z,9.00
2019-05-18T05:00:40.941Z,9.20
2019-05-18T05:03:09.962Z,9.20
2019-05-18T05:05:38.868Z,9.40
2019-05-18T05:08:07.935Z,9.50
2019-05-18T05:10:37.006Z,9.60
2019-05-18T05:13:05.921Z,9.70
2019-05-18T05:15:34.974Z,9.80
2019-05-18T05:18:04.053Z,9.90
2019-05-18T05:20:33.107Z,10.00
2019-05-18T05:23:02.127Z,10.10
2019-05-18T05:25:31.031Z,10.20
2019-05-18T05:28:00.051Z,10.20
2019-05-18T05:30:29.106Z,10.30
2019-05-18T05:32:58.029Z,10.40
2019-05-18T05:35:27.119Z,10.40
2019-05-18T05:37:56.226Z,10.60
2019-05-18T05:40:25.159Z,10.60
2019-05-18T05:42:54.353Z,10.70
2019-05-18T05:45:23.428Z,10.80
2019-05-18T05:47:52.499Z,10.90
2019-05-18T05:50:34.781Z,10.90
2019-05-18T05:52:52.347Z,11.00
2019-05-18T05:55:21.463Z,11.10
2019-05-18T05:57:50.587Z,11.20
2019-05-18T06:00:19.674Z,11.20
2019-05-18T06:02:49.367Z,11.30
2019-05-18T06:05:18.784Z,11.40
2019-05-18T06:07:47.783Z,11.50
2019-05-18T06:10:17.137Z,11.50
2019-05-18T06:12:46.099Z,11.70
2019-05-18T06:15:15.414Z,11.80
2019-05-18T06:17:44.370Z,11.90
2019-05-18T06:20:13.659Z,12.00
2019-05-18T06:22:42.790Z,12.10
2019-05-18T06:25:12.309Z,12.20
2019-05-18T06:27:41.412Z,12.30
2019-05-18T06:30:11.091Z,12.40
2019-05-18T06:32:40.352Z,12.70
2019-05-18T06:35:09.543Z,12.90
2019-05-18T06:37:39.401Z,13.10
2019-05-18T06:40:10.779Z,13.20
2019-05-18T06:42:39.899Z,13.30
2019-05-18T06:45:09.444Z,13.40
2019-05-18T06:47:38.554Z,13.50
2019-05-18T06:50:11.755Z,13.60
2019-05-18T06:52:39.314Z,13.80
2019-05-18T06:55:08.564Z,13.90
2019-05-18T06:57:38.162Z,14.20
2019-05-18T07:00:08.935Z,14.50
2019-05-18T07:02:37.946Z,14.90
2019-05-18T07:05:07.146Z,15.20
2019-05-18T07:07:36.226Z,15.60
2019-05-18T07:10:05.787Z,15.90
2019-05-18T07:12:34.716Z,16.00
2019-05-18T07:15:04.043Z,16.40
2019-05-18T07:17:34.675Z,16.50
2019-05-18T07:20:04.304Z,16.80
2019-05-18T07:22:33.470Z,17.30
2019-05-18T07:25:02.462Z,17.90
2019-05-18T07:27:31.530Z,18.40
2019-05-18T07:30:00.438Z,18.70
2019-05-18T07:32:29.561Z,18.80
2019-05-18T07:34:58.531Z,18.90
2019-05-18T07:37:27.644Z,19.10
2019-05-18T07:39:56.663Z,19.20
2019-05-18T07:42:25.647Z,19.40
2019-05-18T07:44:54.659Z,19.60
2019-05-18T07:47:23.645Z,19.70
2019-05-18T07:49:52.789Z,20.10
2019-05-18T07:52:21.870Z,20.20
2019-05-18T07:54:50.878Z,20.10
2019-05-18T07:57:19.895Z,19.90
2019-05-18T07:59:48.878Z,20.10
2019-05-18T08:02:17.891Z,20.30
2019-05-18T08:04:46.904Z,20.50
2019-05-18T08:07:16.086Z,20.70
2019-05-18T08:09:44.995Z,20.80
2019-05-18T08:12:14.006Z,21.40
2019-05-18T08:14:43.149Z,22.00
2019-05-18T08:17:12.184Z,21.60
2019-05-18T08:19:41.123Z,21.60
2019-05-18T08:22:10.191Z,22.30
2019-05-18T08:24:39.286Z,22.60
2019-05-18T08:27:08.204Z,23.00
2019-05-18T08:29:37.143Z,22.60
2019-05-18T08:32:06.263Z,22.90
2019-05-18T08:34:35.191Z,23.30
2019-05-18T08:37:04.193Z,23.20
2019-05-18T08:39:33.239Z,23.00
2019-05-18T08:42:02.242Z,23.50
2019-05-18T08:44:31.218Z,23.60
2019-05-18T08:47:00.263Z,23.30
2019-05-18T08:49:29.271Z,23.70
2019-05-18T08:52:07.848Z,24.20
2019-05-18T08:54:28.885Z,23.70
2019-05-18T08:56:57.923Z,23.70
2019-05-18T08:59:27.292Z,23.90
2019-05-18T09:01:56.289Z,24.50
2019-05-18T09:04:25.296Z,24.60
2019-05-18T09:06:54.305Z,24.10
2019-05-18T09:09:23.239Z,23.30
2019-05-18T09:11:52.419Z,22.30
2019-05-18T09:14:21.500Z,22.00
2019-05-18T09:16:50.533Z,22.50
2019-05-18T09:19:19.712Z,23.10
2019-05-18T09:21:48.706Z,23.80
2019-05-18T09:24:17.783Z,23.90
2019-05-18T09:26:46.888Z,23.60
2019-05-18T09:29:15.900Z,23.30
2019-05-18T09:31:45.019Z,23.70
2019-05-18T09:34:14.050Z,24.00
2019-05-18T09:36:43.135Z,24.30
2019-05-18T09:39:12.203Z,24.50
2019-05-18T09:41:41.199Z,24.40
2019-05-18T09:44:10.235Z,24.40
2019-05-18T09:46:39.350Z,23.80
2019-05-18T09:49:08.559Z,23.40
2019-05-18T09:51:37.494Z,23.70
2019-05-18T09:54:06.571Z,23.90
2019-05-18T09:56:35.651Z,24.00
2019-05-18T09:59:04.825Z,24.10
2019-05-18T10:01:33.821Z,24.30
2019-05-18T10:04:02.832Z,24.50
2019-05-18T10:06:31.909Z,25.30
2019-05-18T10:09:01.003Z,25.70
2019-05-18T10:11:37.524Z,26.10
2019-05-18T10:14:00.929Z,25.80
2019-05-18T10:16:29.861Z,25.80
2019-05-18T10:18:58.890Z,25.60
2019-05-18T10:21:28.038Z,25.90
2019-05-18T10:23:56.982Z,26.70
2019-05-18T10:26:26.018Z,26.80
2019-05-18T10:28:55.018Z,25.50
2019-05-18T10:31:24.166Z,25.20
2019-05-18T10:33:53.188Z,25.90
2019-05-18T10:36:22.611Z,26.90
2019-05-18T10:38:51.744Z,27.30
2019-05-18T10:41:20.905Z,28.20
2019-05-18T10:43:50.134Z,28.30
2019-05-18T10:46:19.068Z,28.80
2019-05-18T10:48:48.144Z,28.80
2019-05-18T10:51:17.188Z,28.80
2019-05-18T10:53:46.263Z,28.40
2019-05-18T10:56:15.330Z,28.70
2019-05-18T10:58:44.347Z,29.00
2019-05-18T11:01:13.471Z,30.20
2019-05-18T11:03:42.561Z,30.30
2019-05-18T11:06:11.611Z,30.80
2019-05-18T11:08:40.750Z,30.50
2019-05-18T11:11:09.819Z,29.80
2019-05-18T11:13:38.905Z,30.00
2019-05-18T11:16:08.071Z,30.60
2019-05-18T11:18:37.134Z,31.20
2019-05-18T11:21:06.227Z,30.90
2019-05-18T11:23:43.362Z,31.00
2019-05-18T11:26:06.286Z,30.50
2019-05-18T11:28:35.442Z,29.30
2019-05-18T11:31:04.520Z,27.80
2019-05-18T11:33:33.598Z,26.50
2019-05-18T11:36:02.659Z,26.00
2019-05-18T11:38:31.800Z,26.10
2019-05-18T11:41:00.867Z,26.00
2019-05-18T11:43:29.879Z,26.10
2019-05-18T11:45:58.971Z,27.30
2019-05-18T11:48:27.944Z,27.30
2019-05-18T11:50:57.043Z,26.40
2019-05-18T11:53:26.206Z,25.80
2019-05-18T11:55:55.352Z,25.50
2019-05-18T11:58:24.368Z,25.00
2019-05-18T12:00:53.377Z,24.20
2019-05-18T12:03:22.475Z,24.10
2019-05-18T12:05:51.558Z,24.00
2019-05-18T12:08:20.656Z,23.80
2019-05-18T12:10:49.743Z,23.60
2019-05-18T12:13:18.775Z,23.90
2019-05-18T12:15:47.855Z,25.50
2019-05-18T12:18:16.927Z,27.30
2019-05-18T12:20:45.995Z,28.50
2019-05-18T12:23:14.940Z,29.40
2019-05-18T12:25:43.926Z,30.30
2019-05-18T12:28:13.001Z,31.00
2019-05-18T12:30:42.129Z,30.60
2019-05-18T12:33:11.291Z,30.80
2019-05-18T12:35:40.325Z,30.80
2019-05-18T12:38:09.323Z,31.40
2019-05-18T12:40:38.357Z,31.60
2019-05-18T12:43:07.497Z,31.30
2019-05-18T12:45:36.499Z,31.10
2019-05-18T12:48:05.639Z,31.40
2019-05-18T12:50:34.828Z,30.80
2019-05-18T12:53:03.920Z,29.80
2019-05-18T12:55:33.012Z,29.40
2019-05-18T12:58:01.932Z,29.60
2019-05-18T13:00:31.207Z,28.90
2019-05-18T13:03:00.267Z,28.10
2019-05-18T13:05:29.291Z,27.50
2019-05-18T13:08:01.136Z,26.50
2019-05-18T13:10:30.226Z,26.10
2019-05-18T13:12:59.176Z,25.90
2019-05-18T13:34:31.118Z,24.80
2019-05-18T13:37:00.102Z,24.80
2019-05-18T13:39:29.192Z,24.90
2019-05-18T13:41:58.269Z,25.10
2019-05-18T13:44:27.267Z,25.20
2019-05-18T13:46:56.279Z,25.10
2019-05-18T13:49:25.347Z,24.80
2019-05-18T13:51:54.431Z,24.80
2019-05-18T13:54:23.510Z,25.10
2019-05-18T13:56:52.638Z,24.90
2019-05-18T13:59:21.802Z,25.00
2019-05-18T14:01:50.971Z,25.10
2019-05-18T14:04:20.310Z,25.20
2019-05-18T14:06:49.400Z,25.30
2019-05-18T14:09:18.559Z,25.00
2019-05-18T14:11:47.566Z,24.90
2019-05-18T14:14:16.642Z,24.80
2019-05-18T14:16:45.722Z,24.80
2019-05-18T14:19:14.875Z,24.80
2019-05-18T14:21:43.924Z,24.70
2019-05-18T14:24:12.989Z,24.80
2019-05-18T14:26:41.895Z,25.10
2019-05-18T14:29:10.975Z,25.10
2019-05-18T14:31:39.995Z,25.40
2019-05-18T14:34:09.154Z,25.20
2019-05-18T14:36:38.137Z,24.90
2019-05-18T14:39:07.283Z,25.00
2019-05-18T14:41:36.299Z,25.40
2019-05-18T14:44:05.397Z,25.10
2019-05-18T14:46:34.475Z,25.10
2019-05-18T14:49:03.508Z,25.10
2019-05-18T14:51:32.515Z,25.00
2019-05-18T14:54:01.723Z,24.90
2019-05-18T14:56:31.678Z,24.60
2019-05-18T14:59:01.311Z,24.60
2019-05-18T15:01:31.159Z,25.10
2019-05-18T15:04:00.289Z,25.10
2019-05-18T15:06:29.435Z,25.30
2019-05-18T15:08:58.441Z,25.30
2019-05-18T15:11:27.468Z,25.40
2019-05-18T15:13:56.426Z,25.10
2019-05-18T15:16:25.604Z,24.90
2019-05-18T15:18:54.646Z,25.20
2019-05-18T15:21:24.639Z,25.40
2019-05-18T15:23:54.239Z,25.50
2019-05-18T15:26:23.427Z,25.60
2019-05-18T15:28:52.409Z,25.70
2019-05-18T15:31:23.775Z,26.00
2019-05-18T15:33:52.185Z,26.00
2019-05-18T15:36:21.260Z,26.60
2019-05-18T15:38:50.260Z,26.70
2019-05-18T15:41:19.341Z,27.10
2019-05-18T15:43:48.344Z,27.60
2019-05-18T15:46:17.383Z,27.90
2019-05-18T15:48:46.466Z,28.10
2019-05-18T15:51:15.601Z,28.10
2019-05-18T15:53:44.631Z,28.00
2019-05-18T15:56:13.775Z,27.40
2019-05-18T15:58:42.770Z,27.30
2019-05-18T16:01:11.901Z,26.60
2019-05-18T16:03:40.966Z,26.30
2019-05-18T16:06:10.100Z,25.90
2019-05-18T16:08:39.119Z,25.60
2019-05-18T16:11:08.214Z,25.20
2019-05-18T16:13:37.134Z,24.80
2019-05-18T16:16:06.207Z,24.40
2019-05-18T16:18:35.183Z,24.20
2019-05-18T16:21:04.242Z,24.20
2019-05-18T16:23:33.431Z,23.90
2019-05-18T16:26:02.433Z,23.40
2019-05-18T16:28:31.544Z,22.90
2019-05-18T16:31:00.558Z,22.50
2019-05-18T16:33:29.478Z,22.10
2019-05-18T16:35:58.446Z,21.70
2019-05-18T16:38:27.371Z,21.50
2019-05-18T16:40:56.453Z,21.40
2019-05-18T16:43:25.623Z,21.20
2019-05-18T16:45:54.663Z,21.10
2019-05-18T16:48:24.332Z,20.90
2019-05-18T16:50:53.415Z,20.70
2019-05-18T16:53:22.556Z,20.50
2019-05-18T16:55:51.565Z,20.40
2019-05-18T16:58:20.694Z,20.30
2019-05-18T17:00:50.015Z,20.30
2019-05-18T17:03:19.015Z,20.20
2019-05-18T17:05:48.075Z,20.20
2019-05-18T17:08:17.219Z,20.20
2019-05-18T17:10:46.304Z,20.10
2019-05-18T17:13:15.309Z,20.10
2019-05-18T17:15:44.958Z,20.10
2019-05-18T17:18:14.048Z,20.00
2019-05-18T17:20:43.444Z,19.90
2019-05-18T17:23:12.518Z,19.80
2019-05-18T17:25:41.586Z,19.80
2019-05-18T17:28:10.610Z,19.80
2019-05-18T17:30:42.568Z,19.70
2019-05-18T17:33:10.476Z,19.70
2019-05-18T17:35:39.775Z,19.60
2019-05-18T17:38:08.943Z,19.60
2019-05-18T17:40:38.285Z,19.50
2019-05-18T17:43:07.530Z,19.40
2019-05-18T17:45:36.643Z,19.40
2019-05-18T17:48:05.832Z,19.30
2019-05-18T17:50:35.145Z,19.20
2019-05-18T17:53:04.446Z,19.20
2019-05-18T17:55:33.729Z,19.10
2019-05-18T17:58:02.917Z,19.10
2019-05-18T18:00:32.131Z,19.00
2019-05-18T18:03:01.186Z,18.90
2019-05-18T18:05:30.295Z,18.90
2019-05-18T18:07:59.518Z,18.70
2019-05-18T18:10:28.696Z,18.60
2019-05-18T18:12:57.685Z,18.60
2019-05-18T18:15:26.783Z,18.40
2019-05-18T18:17:55.795Z,18.30
2019-05-18T18:20:25.055Z,18.20
2019-05-18T18:22:54.156Z,18.00
2019-05-18T18:25:23.417Z,18.00
2019-05-18T18:27:52.510Z,17.90
2019-05-18T18:30:21.807Z,17.80
2019-05-18T18:32:50.998Z,17.70
2019-05-18T18:35:20.193Z,17.70
2019-05-18T18:37:49.660Z,17.60
2019-05-18T18:40:18.752Z,17.50
2019-05-18T18:42:47.847Z,17.40
2019-05-18T18:45:17.370Z,17.30
2019-05-18T18:47:46.498Z,17.20
2019-05-18T18:50:16.190Z,17.30
2019-05-18T18:52:45.580Z,17.10
2019-05-18T18:55:15.070Z,17.10
2019-05-18T18:57:44.466Z,16.90
2019-05-18T19:00:14.142Z,16.90
2019-05-18T19:02:43.275Z,16.80
2019-05-18T19:05:14.172Z,16.80
2019-05-18T19:07:43.388Z,16.60
2019-05-18T19:10:14.099Z,16.60
2019-05-18T19:12:43.101Z,16.60
2019-05-18T19:15:12.659Z,16.50
2019-05-18T19:17:41.751Z,16.40
2019-05-18T19:20:11.410Z,16.40
2019-05-18T19:22:40.462Z,16.30
2019-05-18T19:25:09.941Z,16.20
2019-05-18T19:27:39.550Z,16.20
2019-05-18T19:30:10.247Z,16.20
2019-05-18T19:32:39.492Z,16.10
2019-05-18T19:35:08.935Z,16.00
2019-05-18T19:37:38.130Z,16.00
2019-05-18T19:40:07.691Z,15.90
2019-05-18T19:42:36.839Z,15.80
2019-05-18T21:01:07.928Z,14.20
2019-05-18T21:03:36.871Z,14.20
2019-05-18T21:06:06.015Z,14.10
2019-05-18T21:08:35.114Z,14.10
2019-05-18T21:11:04.299Z,14.00
2019-05-18T21:13:33.239Z,14.00
2019-05-18T21:16:02.413Z,14.10
2019-05-18T21:18:31.488Z,14.00
2019-05-18T21:21:00.460Z,14.00
2019-05-18T21:23:29.374Z,13.90
2019-05-18T21:25:58.375Z,13.90
2019-05-18T21:28:27.506Z,13.80
2019-05-18T21:30:56.507Z,13.80
2019-05-18T21:33:25.593Z,13.70
2019-05-18T21:35:54.763Z,13.70
2019-05-18T21:38:23.748Z,13.70
2019-05-18T21:40:52.836Z,13.70
2019-05-18T21:43:21.916Z,13.70
2019-05-18T21:45:51.020Z,13.70
2019-05-18T21:48:20.091Z,13.60
2019-05-18T21:50:52.712Z,13.60
2019-05-18T21:53:21.778Z,13.50
2019-05-18T21:55:50.850Z,13.50
2019-05-18T21:58:19.952Z,13.50
2019-05-18T22:00:49.666Z,13.50
2019-05-18T22:03:18.938Z,13.40
2019-05-18T22:05:48.029Z,13.40
2019-05-18T22:08:17.187Z,13.30
2019-05-18T22:10:46.222Z,13.30
2019-05-18T22:13:15.145Z,13.20
2019-05-18T22:15:44.151Z,13.20
2019-05-18T22:18:24.088Z,13.10
2019-05-18T22:20:44.547Z,13.10
2019-05-18T22:23:13.708Z,13.00
2019-05-18T22:25:42.802Z,13.00
2019-05-18T22:28:11.867Z,12.90
